createdAt,value
2019-04-28T00:03:56.000Z,20.97
2019-04-28T00:13:56.000Z,20.95
2019-04-28T00:23:56.000Z,20.95
2019-04-28T00:33:56.000Z,20.9
2019-04-28T00:43:58.000Z,20.87
2019-04-28T00:53:56.000Z,20.87
2019-04-28T01:03:56.000Z,20.84
2019-04-28T01:13:56.000Z,20.83
2019-04-28T01:23:56.000Z,20.82
2019-04-28T01:33:58.000Z,20.8
2019-04-28T01:43:57.000Z,20.78
2019-04-28T01:53:58.000Z,20.78
2019-04-28T02:03:57.000Z,20.75
2019-04-28T02:13:57.000Z,20.73
2019-04-28T02:23:59.000Z,20.71
2019-04-28T02:33:57.000Z,20.7
2019-04-28T02:43:57.000Z,20.67
2019-04-28T02:53:59.000Z,20.63
2019-04-28T03:03:57.000Z,20.62
2019-04-28T03:13:57.000Z,20.59
2019-04-28T03:23:57.000Z,20.59
2019-04-28T03:33:57.000Z,20.56
2019-04-28T03:43:59.000Z,20.54
2019-04-28T03:53:57.000Z,20.52
2019-04-28T04:03:57.000Z,20.49
2019-04-28T04:13:57.000Z,20.49
2019-04-28T04:23:57.000Z,20.5
2019-04-28T04:33:57.000Z,20.48
2019-04-28T04:43:58.000Z,20.47
2019-04-28T04:53:58.000Z,20.46
2019-04-28T05:03:57.000Z,20.43
2019-04-28T05:13:58.000Z,20.39
2019-04-28T05:23:57.000Z,20.4
2019-04-28T05:33:57.000Z,20.4
2019-04-28T05:43:57.000Z,20.39
2019-04-28T05:53:57.000Z,20.38
2019-04-28T06:03:57.000Z,20.37
2019-04-28T06:13:57.000Z,20.38
2019-04-28T06:23:57.000Z,20.36
2019-04-28T06:33:57.000Z,20.36
2019-04-28T06:43:59.000Z,20.38
2019-04-28T06:53:57.000Z,20.38
2019-04-28T07:13:57.000Z,20.4
2019-04-28T07:23:57.000Z,20.415
2019-04-28T07:33:57.000Z,20.42
2019-04-28T07:43:57.000Z,20.45
2019-04-28T07:53:57.000Z,20.49
2019-04-28T08:03:57.000Z,20.51
2019-04-28T08:13:57.000Z,20.56
2019-04-28T08:23:58.000Z,20.59
2019-04-28T08:33:57.000Z,20.65
2019-04-28T08:43:57.000Z,20.67
2019-04-28T08:53:57.000Z,20.67
2019-04-28T09:03:57.000Z,20.65
2019-04-28T09:13:59.000Z,20.59
2019-04-28T09:33:57.000Z,20.62
2019-04-28T09:43:57.000Z,20.55
2019-04-28T09:53:57.000Z,20.47
2019-04-28T10:03:57.000Z,20.56
2019-04-28T10:13:58.000Z,20.7
2019-04-28T10:23:57.000Z,20.7
2019-04-28T10:33:58.000Z,20.78
2019-04-28T10:53:58.000Z,20.84
2019-04-28T11:03:58.000Z,20.85
2019-04-28T11:13:58.000Z,20.86
2019-04-28T11:23:58.000Z,20.88
2019-04-28T11:33:58.000Z,20.9
2019-04-28T11:43:58.000Z,21
2019-04-28T11:53:58.000Z,21
2019-04-28T12:03:58.000Z,21.07
2019-04-28T12:13:58.000Z,21.06
2019-04-28T12:23:58.000Z,21.14
2019-04-28T12:33:58.000Z,21.09
2019-04-28T12:43:59.000Z,21.13
2019-04-28T12:53:58.000Z,21.19
2019-04-28T13:03:58.000Z,21.18
2019-04-28T13:13:58.000Z,21.18
2019-04-28T13:33:58.000Z,21.14
2019-04-28T13:53:58.000Z,21.14
2019-04-28T14:03:58.000Z,21.15
2019-04-28T14:13:58.000Z,21.18
2019-04-28T14:33:58.000Z,21.22
2019-04-28T14:43:58.000Z,21.2
2019-04-28T14:53:58.000Z,21.21
2019-04-28T15:03:59.000Z,21.2
2019-04-28T15:13:58.000Z,21.18
2019-04-28T15:23:58.000Z,21.15
2019-04-28T15:34:00.000Z,21.14
2019-04-28T15:43:58.000Z,21.14
2019-04-28T15:53:58.000Z,21.13
2019-04-28T16:03:58.000Z,21.06
2019-04-28T16:13:58.000Z,21.05
2019-04-28T16:23:58.000Z,20.97
2019-04-28T16:33:58.000Z,20.96
2019-04-28T16:44:02.000Z,20.96
2019-04-28T16:53:58.000Z,20.94
2019-04-28T17:03:58.000Z,21
2019-04-28T17:13:58.000Z,21.02
2019-04-28T17:23:58.000Z,20.99
2019-04-28T17:33:58.000Z,20.92
2019-04-28T17:43:59.000Z,21.08
2019-04-28T17:53:58.000Z,21.09
2019-04-28T18:03:59.000Z,21.03
2019-04-28T18:23:58.000Z,21.06
2019-04-28T18:33:58.000Z,21.02
2019-04-28T18:43:59.000Z,21.01
2019-04-28T18:53:59.000Z,21
2019-04-28T19:03:59.000Z,20.95
2019-04-28T19:14:02.000Z,20.93
2019-04-28T19:24:01.000Z,20.91
2019-04-28T19:34:00.000Z,20.92
2019-04-28T19:43:59.000Z,20.89
2019-04-28T19:53:59.000Z,20.89
2019-04-28T20:03:59.000Z,20.89
2019-04-28T20:13:59.000Z,20.85
2019-04-28T20:23:59.000Z,20.74
2019-04-28T20:33:59.000Z,20.77
2019-04-28T20:43:59.000Z,20.73
2019-04-28T20:53:59.000Z,20.72
2019-04-28T21:03:59.000Z,20.69
2019-04-28T21:14:01.000Z,20.65
2019-04-28T21:23:59.000Z,20.63
2019-04-28T21:33:59.000Z,20.62
2019-04-28T21:43:59.000Z,20.58
2019-04-28T21:54:00.000Z,20.59
2019-04-28T22:03:59.000Z,20.68
2019-04-28T22:13:59.000Z,20.56
2019-04-28T22:23:59.000Z,20.55
2019-04-28T22:33:59.000Z,20.55
2019-04-28T22:43:59.000Z,20.48
2019-04-28T22:53:59.000Z,20.42
2019-04-28T23:03:59.000Z,20.37
2019-04-28T23:13:59.000Z,20.32
2019-04-28T23:23:59.000Z,20.26
2019-04-28T23:33:59.000Z,20.22
2019-04-28T23:43:59.000Z,20.18
2019-04-28T23:53:59.000Z,20.15
